Terminal Aerodrome Forecast
Issued by NWS

Home | Current Version | Previous Version | Text Only | Print | Product List | Glossary On
Versions: 1 2 3 4 5 6 7 8 9 10 11 12 13 14 15
000
FTUS43 KEAX 220500
TAFSTJ
TAF
KSTJ 220520Z 2206/2306 16014KT P6SM VCSH OVC012
      TEMPO 2206/2209 4SM -DZ BKN006
     FM221000 17012G22KT 3SM -RA BR OVC010
     FM222000 23011KT 6SM BR OVC025=

USA.gov is the U.S. government's official web portal to all federal, state and local government web resources and services.